createdAt,value
2023-01-04T00:01:54.995Z,99521.00
2023-01-04T00:04:21.884Z,99524.44
2023-01-04T00:06:48.705Z,99479.16
2023-01-04T00:09:15.437Z,99594.81
2023-01-04T00:11:42.278Z,99603.28
2023-01-04T00:14:11.204Z,99561.41
2023-01-04T00:16:38.021Z,99487.63
2023-01-04T00:19:04.810Z,99513.63
2023-01-04T00:21:31.928Z,99586.69
2023-01-04T00:24:01.035Z,99546.47
2023-01-04T00:26:33.110Z,99612.00
2023-01-04T00:29:01.945Z,99578.66
2023-01-04T00:31:29.153Z,99527.31
2023-01-04T00:33:57.551Z,99519.69
2023-01-04T00:36:25.173Z,99624.66
2023-01-04T00:39:07.392Z,99619.25
2023-01-04T00:41:58.015Z,99414.56
2023-01-04T00:44:23.343Z,99628.56
2023-01-04T00:46:50.534Z,99566.47
2023-01-04T00:49:17.296Z,99573.69
2023-01-04T00:51:44.024Z,99560.66
2023-01-04T00:54:14.680Z,99569.69
2023-01-04T00:56:41.483Z,99591.78
2023-01-04T00:59:08.641Z,99536.38
2023-01-04T01:01:36.074Z,99636.97
2023-01-04T01:04:04.587Z,99616.06
2023-01-04T01:06:33.676Z,99637.06
2023-01-04T01:09:01.267Z,99621.09
2023-01-04T01:11:29.240Z,99617.88
2023-01-04T01:13:56.434Z,99565.88
2023-01-04T01:16:51.852Z,99645.63
2023-01-04T01:19:11.783Z,99605.44
2023-01-04T01:21:38.893Z,99572.09
2023-01-04T01:24:06.475Z,99590.38
2023-01-04T01:26:33.415Z,99577.78
2023-01-04T01:29:00.337Z,99576.84
2023-01-04T01:31:29.147Z,99554.09
2023-01-04T01:33:57.080Z,99525.44
2023-01-04T01:36:26.067Z,99653.19
2023-01-04T01:38:53.459Z,99663.50
2023-01-04T01:41:27.511Z,99654.97
2023-01-04T01:44:03.040Z,99572.28
2023-01-04T01:46:35.651Z,99661.59
2023-01-04T01:49:13.539Z,99603.03
2023-01-04T01:51:42.167Z,99640.16
2023-01-04T01:54:13.148Z,99554.00
2023-01-04T01:56:43.296Z,99534.16
2023-01-04T01:59:12.714Z,99652.75
2023-01-04T02:01:40.831Z,99492.38
2023-01-04T02:04:09.042Z,99669.28
2023-01-04T02:06:40.577Z,99521.41
2023-01-04T02:09:08.376Z,99677.19
2023-01-04T02:11:35.207Z,99641.28
2023-01-04T02:14:22.836Z,99709.63
2023-01-04T02:16:56.993Z,99680.41
2023-01-04T02:19:42.617Z,99682.97
2023-01-04T02:22:39.677Z,99690.66
2023-01-04T02:25:44.017Z,99683.69
2023-01-04T02:28:10.696Z,99692.25
2023-01-04T02:31:14.810Z,99688.09
2023-01-04T02:33:49.844Z,99682.25
2023-01-04T02:36:53.882Z,99694.53
2023-01-04T02:39:46.120Z,99685.38
2023-01-04T02:42:45.680Z,99551.03
2023-01-04T02:45:15.058Z,99659.34
2023-01-04T02:48:01.742Z,99688.00
2023-01-04T02:50:36.331Z,99607.75
2023-01-04T02:53:10.251Z,99587.66
2023-01-04T02:56:08.613Z,99551.81
2023-01-04T02:58:45.350Z,99685.28
2023-01-04T03:02:02.845Z,99640.72
2023-01-04T03:05:23.111Z,99695.59
2023-01-04T03:08:14.704Z,99697.47
2023-01-04T03:10:57.674Z,99630.50
2023-01-04T03:13:42.660Z,99697.69
2023-01-04T03:16:15.164Z,99693.59
2023-01-04T03:18:48.190Z,99636.00
2023-01-04T03:21:17.991Z,99725.56
2023-01-04T03:24:05.991Z,99696.66
2023-01-04T03:27:06.087Z,99553.56
2023-01-04T03:30:00.099Z,99626.72
2023-01-04T03:32:58.549Z,99600.78
2023-01-04T03:35:38.769Z,99700.03
2023-01-04T03:38:46.522Z,99682.63
2023-01-04T03:41:36.228Z,99694.19
2023-01-04T03:44:47.832Z,99660.63
2023-01-04T03:47:44.376Z,99487.59
2023-01-04T03:50:19.360Z,99719.91
2023-01-04T03:52:47.729Z,99644.31
2023-01-04T03:55:16.456Z,99621.22
2023-01-04T03:57:46.224Z,99702.19
2023-01-04T04:00:16.557Z,99691.69
2023-01-04T04:02:46.369Z,99646.81
2023-01-04T04:05:41.717Z,99658.72
2023-01-04T04:08:28.036Z,99674.84
2023-01-04T04:11:35.345Z,99740.31
2023-01-04T04:14:02.149Z,99717.16
2023-01-04T04:16:29.810Z,99650.91
2023-01-04T04:18:57.074Z,99691.44
2023-01-04T04:21:23.915Z,99597.66
2023-01-04T04:23:50.792Z,99692.66
2023-01-04T04:26:17.931Z,99672.75
2023-01-04T04:28:44.798Z,99718.78
2023-01-04T04:31:12.072Z,99672.72
2023-01-04T04:33:39.892Z,99724.81
2023-01-04T04:36:07.519Z,99725.44
2023-01-04T04:38:34.932Z,99682.56
2023-01-04T04:41:26.583Z,99645.88
2023-01-04T04:43:54.058Z,99718.03
2023-01-04T04:46:21.478Z,99760.63
2023-01-04T04:48:48.390Z,99710.41
2023-01-04T04:51:15.291Z,99665.84
2023-01-04T04:53:42.238Z,99711.28
2023-01-04T04:56:09.755Z,99723.28
2023-01-04T04:58:37.325Z,99706.34
2023-01-04T05:01:04.569Z,99642.50
2023-01-04T05:03:31.742Z,99739.22
2023-01-04T05:05:58.705Z,99628.97
2023-01-04T05:08:25.547Z,99730.91
2023-01-04T05:10:52.394Z,99531.72
2023-01-04T05:13:19.637Z,99690.78
2023-01-04T05:15:49.000Z,99607.50
2023-01-04T05:18:18.299Z,99732.72
2023-01-04T05:20:45.647Z,99605.63
2023-01-04T05:23:17.034Z,99730.09
2023-01-04T05:25:44.119Z,99703.91
2023-01-04T05:28:11.465Z,99710.88
2023-01-04T05:30:57.170Z,99607.03
2023-01-04T05:33:30.441Z,99549.69
2023-01-04T05:35:59.986Z,99767.53
2023-01-04T05:38:27.855Z,99725.69
2023-01-04T05:40:56.186Z,99786.34
2023-01-04T05:43:24.330Z,99786.00
2023-01-04T05:45:54.243Z,99785.66
2023-01-04T05:48:22.140Z,99782.91
2023-01-04T05:50:49.480Z,99788.13
2023-01-04T05:53:18.271Z,99800.13
2023-01-04T05:55:47.523Z,99664.66
2023-01-04T05:58:14.696Z,99799.03
2023-01-04T06:00:41.561Z,99805.03
2023-01-04T06:03:08.633Z,99809.06
2023-01-04T06:05:35.532Z,99765.22
2023-01-04T06:08:02.439Z,99774.78
2023-01-04T06:10:29.323Z,99562.13
2023-01-04T06:12:55.985Z,99806.75
2023-01-04T06:15:22.837Z,99738.84
2023-01-04T06:17:49.718Z,99787.34
2023-01-04T06:20:16.482Z,99730.28
2023-01-04T06:22:43.372Z,99667.72
2023-01-04T06:25:10.760Z,99726.41
2023-01-04T06:27:37.675Z,99827.41
2023-01-04T06:30:05.168Z,99701.09
2023-01-04T06:32:32.009Z,99862.97
2023-01-04T06:34:58.913Z,99794.47
2023-01-04T06:37:25.880Z,99726.50
2023-01-04T06:39:52.976Z,99721.44
2023-01-04T06:42:38.536Z,99783.94
2023-01-04T06:45:05.891Z,99708.56
2023-01-04T06:47:32.569Z,99799.72
2023-01-04T06:49:59.315Z,99722.16
2023-01-04T06:52:26.209Z,99700.91
2023-01-04T06:54:53.012Z,99715.09
2023-01-04T06:57:19.926Z,99724.06
2023-01-04T06:59:46.681Z,99722.31
2023-01-04T07:02:16.924Z,99830.06
2023-01-04T07:04:43.953Z,99824.94
2023-01-04T07:07:11.046Z,99689.63
2023-01-04T07:09:38.904Z,99708.97
2023-01-04T07:12:06.280Z,99718.69
2023-01-04T07:14:33.205Z,99809.50
2023-01-04T07:17:00.018Z,99753.03
2023-01-04T07:19:26.832Z,99729.44
2023-01-04T07:21:53.978Z,99741.31
2023-01-04T07:24:26.108Z,99774.19
2023-01-04T07:26:54.864Z,99763.81
2023-01-04T07:29:22.495Z,99796.44
2023-01-04T07:31:51.521Z,99849.69
2023-01-04T07:34:20.276Z,99769.91
2023-01-04T07:36:48.469Z,99801.09
2023-01-04T07:39:16.441Z,99862.84
2023-01-04T07:41:43.365Z,99845.81
2023-01-04T07:44:11.499Z,99831.25
2023-01-04T07:46:39.140Z,99838.97
2023-01-04T07:49:11.540Z,99750.47
2023-01-04T07:51:41.781Z,99848.41
2023-01-04T07:54:10.040Z,99791.97
2023-01-04T07:56:37.533Z,99849.41
2023-01-04T07:59:11.554Z,99851.44
2023-01-04T08:01:39.031Z,99805.44
2023-01-04T08:04:06.818Z,99860.09
2023-01-04T08:06:35.249Z,99814.03
2023-01-04T08:09:03.660Z,99859.84
2023-01-04T08:11:30.535Z,99842.88
2023-01-04T08:13:57.440Z,99849.91
2023-01-04T08:16:27.604Z,99849.81
2023-01-04T08:18:55.971Z,99806.44
2023-01-04T08:21:23.064Z,99790.78
2023-01-04T08:23:50.501Z,99800.47
2023-01-04T08:26:17.883Z,99726.28
2023-01-04T08:28:45.047Z,99819.19
2023-01-04T08:31:18.979Z,99906.66
2023-01-04T08:33:46.786Z,99872.63
2023-01-04T08:36:26.742Z,99882.94
2023-01-04T08:39:02.052Z,99872.66
2023-01-04T08:41:56.898Z,99773.97
2023-01-04T08:44:19.376Z,99857.31
2023-01-04T08:46:46.754Z,99797.50
2023-01-04T08:49:13.710Z,99753.38
2023-01-04T08:51:40.996Z,99707.28
2023-01-04T08:54:09.300Z,99822.13
2023-01-04T08:56:36.692Z,99837.63
2023-01-04T08:59:04.055Z,99847.06
2023-01-04T09:01:32.444Z,99785.72
2023-01-04T09:03:59.834Z,99818.09
2023-01-04T09:06:27.609Z,99823.63
2023-01-04T09:08:56.710Z,99867.91
2023-01-04T09:11:24.467Z,99817.69
2023-01-04T09:14:04.340Z,99865.84
2023-01-04T09:16:34.609Z,99803.59
2023-01-04T09:19:01.484Z,99761.50
2023-01-04T09:21:28.543Z,99854.75
2023-01-04T09:23:57.984Z,99858.53
2023-01-04T09:26:25.065Z,99802.22
2023-01-04T09:28:53.781Z,99821.41
2023-01-04T09:31:25.630Z,99838.34
2023-01-04T09:36:40.096Z,99837.66
2023-01-04T09:39:07.460Z,99781.25
2023-01-04T09:41:43.479Z,99759.56
2023-01-04T09:44:10.212Z,99835.03
2023-01-04T09:46:42.730Z,99835.72
2023-01-04T09:49:20.180Z,99789.53
2023-01-04T09:51:59.599Z,99829.00
2023-01-04T09:54:41.253Z,99799.81
2023-01-04T09:57:20.209Z,99789.28
2023-01-04T09:59:48.640Z,99787.69
2023-01-04T10:02:23.081Z,99829.91
2023-01-04T10:04:51.678Z,99776.47
2023-01-04T10:07:26.558Z,99738.41
2023-01-04T10:09:53.957Z,99800.03
2023-01-04T10:12:45.214Z,99825.84
2023-01-04T10:15:35.599Z,99809.94
2023-01-04T10:23:41.561Z,99824.84
2023-01-04T10:26:17.848Z,99796.72
2023-01-04T10:28:53.779Z,99811.59
2023-01-04T10:31:39.286Z,99700.19
2023-01-04T10:34:27.311Z,99810.69
2023-01-04T10:37:00.052Z,99724.31
2023-01-04T10:39:33.582Z,99760.75
2023-01-04T10:42:14.756Z,99751.28
2023-01-04T10:44:56.987Z,99801.28
2023-01-04T10:47:34.402Z,99708.13
2023-01-04T10:50:27.490Z,99740.31
2023-01-04T10:53:04.094Z,99782.75
2023-01-04T10:56:23.256Z,99739.44
2023-01-04T10:58:34.784Z,99771.97
2023-01-04T11:01:12.005Z,99721.31
2023-01-04T11:03:45.449Z,99700.25
2023-01-04T11:06:23.741Z,99720.75
2023-01-04T11:09:03.553Z,99767.47
2023-01-04T11:11:51.407Z,99766.75
2023-01-04T11:14:18.375Z,99680.28
2023-01-04T11:16:50.644Z,99768.31
2023-01-04T11:19:17.682Z,99741.22
2023-01-04T11:21:51.564Z,99718.53
2023-01-04T11:24:34.405Z,99584.66
2023-01-04T11:27:16.037Z,99669.06
2023-01-04T11:29:58.094Z,99761.00
2023-01-04T11:32:39.513Z,99693.69
2023-01-04T11:35:06.544Z,99689.13
2023-01-04T11:37:37.567Z,99740.88
2023-01-04T11:40:24.772Z,99765.66
2023-01-04T11:43:11.451Z,99688.88
2023-01-04T11:45:38.490Z,99691.63
2023-01-04T11:48:12.425Z,99750.66
2023-01-04T11:50:48.297Z,99762.75
2023-01-04T11:53:28.192Z,99672.91
2023-01-04T11:56:14.816Z,99698.91
2023-01-04T11:58:43.291Z,99644.97
2023-01-04T12:01:24.567Z,99713.03
2023-01-04T12:03:51.969Z,99730.63
2023-01-04T12:06:34.049Z,99745.50
2023-01-04T12:09:01.316Z,99752.63
2023-01-04T12:11:37.009Z,99728.34
2023-01-04T12:14:05.416Z,99648.53
2023-01-04T12:17:03.254Z,99722.94
2023-01-04T12:19:30.647Z,99717.19
2023-01-04T12:22:00.843Z,99703.44
2023-01-04T12:24:34.750Z,99695.66
2023-01-04T12:27:01.981Z,99613.53
2023-01-04T12:29:41.070Z,99684.78
2023-01-04T12:32:10.949Z,99693.53
2023-01-04T12:34:37.713Z,99704.25
2023-01-04T12:37:06.388Z,99691.72
2023-01-04T12:39:43.632Z,99709.13
2023-01-04T12:42:13.129Z,99630.88
2023-01-04T12:44:46.921Z,99689.28
2023-01-04T12:47:47.389Z,99680.06
2023-01-04T12:50:25.063Z,99618.66
2023-01-04T12:53:29.904Z,99680.88
2023-01-04T12:55:55.133Z,99672.88
2023-01-04T12:58:58.014Z,99665.53
2023-01-04T13:01:28.848Z,99601.22
2023-01-04T13:04:06.191Z,99650.94
2023-01-04T13:06:44.733Z,99664.56
2023-01-04T13:09:23.950Z,99627.69
2023-01-04T13:12:03.535Z,99657.13
2023-01-04T13:14:40.338Z,99657.63
2023-01-04T13:17:15.181Z,99623.72
2023-01-04T13:19:44.007Z,99650.72
2023-01-04T13:22:23.436Z,99625.56
2023-01-04T13:24:56.522Z,99646.53
2023-01-04T13:27:24.476Z,99602.78
2023-01-04T13:29:52.380Z,99634.63
2023-01-04T13:32:28.477Z,99561.44
2023-01-04T13:35:09.783Z,99626.28
2023-01-04T13:37:47.823Z,99631.06
2023-01-04T13:40:27.320Z,99628.47
2023-01-04T13:43:09.358Z,99628.53
2023-01-04T13:46:05.516Z,99623.03
2023-01-04T13:48:39.083Z,99571.22
2023-01-04T13:51:17.742Z,99614.94
2023-01-04T13:54:01.549Z,99609.81
2023-01-04T13:56:31.923Z,99502.75
2023-01-04T13:58:59.345Z,99522.81
2023-01-04T14:01:45.403Z,99605.31
2023-01-04T14:04:26.683Z,99579.66
2023-01-04T14:06:57.828Z,99592.69
2023-01-04T14:09:28.667Z,99590.06
2023-01-04T14:12:06.864Z,99581.41
2023-01-04T14:14:53.718Z,99572.06
2023-01-04T14:17:32.870Z,99507.13
2023-01-04T14:20:02.919Z,99486.00
2023-01-04T14:22:32.604Z,99560.56
2023-01-04T14:25:10.057Z,99391.72
2023-01-04T14:27:40.284Z,99477.41
2023-01-04T14:30:19.083Z,99560.88
2023-01-04T14:32:57.741Z,99575.06
2023-01-04T14:35:25.348Z,99528.72
2023-01-04T14:37:52.474Z,99536.19
2023-01-04T14:40:26.815Z,99553.03
2023-01-04T14:42:54.448Z,99461.59
2023-01-04T14:45:21.531Z,99508.72
2023-01-04T14:47:48.353Z,99499.16
2023-01-04T14:50:17.720Z,99489.81
2023-01-04T14:52:54.595Z,99519.16
2023-01-04T14:55:23.426Z,99519.81
2023-01-04T14:57:50.591Z,99498.84
2023-01-04T15:00:19.743Z,99458.72
2023-01-04T15:02:51.031Z,99527.41
2023-01-04T15:05:21.097Z,99433.09
2023-01-04T15:07:47.977Z,99330.69
2023-01-04T15:10:24.295Z,99512.13
2023-01-04T15:12:51.190Z,99498.50
2023-01-04T15:15:18.483Z,99405.09
2023-01-04T15:17:45.465Z,99462.47
2023-01-04T15:20:13.192Z,99490.34
2023-01-04T15:22:40.481Z,99400.13
2023-01-04T15:25:07.886Z,99448.84
2023-01-04T15:27:40.138Z,99401.13
2023-01-04T15:30:13.991Z,99497.72
2023-01-04T15:32:41.428Z,99430.38
2023-01-04T15:35:08.735Z,99456.16
2023-01-04T15:37:35.661Z,99465.31
2023-01-04T15:40:03.918Z,99409.81
2023-01-04T15:42:49.495Z,99438.38
2023-01-04T15:45:16.755Z,99347.72
2023-01-04T15:47:43.721Z,99437.31
2023-01-04T15:50:10.430Z,99382.81
2023-01-04T15:52:37.349Z,99415.41
2023-01-04T15:55:04.387Z,99431.06
2023-01-04T15:57:32.402Z,99282.41
2023-01-04T15:59:59.284Z,99427.53
2023-01-04T16:02:26.619Z,99357.72
2023-01-04T16:04:53.445Z,99348.53
2023-01-04T16:07:20.268Z,99400.53
2023-01-04T16:09:47.657Z,99355.75
2023-01-04T16:12:33.445Z,99336.38
2023-01-04T16:15:04.082Z,99330.47
2023-01-04T16:17:30.889Z,99346.41
2023-01-04T16:19:57.661Z,99378.88
2023-01-04T16:22:24.525Z,99295.78
2023-01-04T16:27:39.482Z,99326.38
2023-01-04T16:30:10.723Z,99318.50
2023-01-04T16:32:43.774Z,99381.22
2023-01-04T16:35:11.590Z,99356.00
2023-01-04T16:37:38.591Z,99311.47
2023-01-04T16:40:07.730Z,99344.56
2023-01-04T16:42:36.981Z,99310.09
2023-01-04T16:45:03.983Z,99290.19
2023-01-04T16:47:41.536Z,99352.16
2023-01-04T16:50:10.428Z,99323.56
2023-01-04T16:52:37.938Z,99301.56
2023-01-04T16:55:05.939Z,99278.91
2023-01-04T16:57:32.906Z,99243.91
2023-01-04T16:59:59.762Z,99248.66
2023-01-04T17:02:26.792Z,99292.75
2023-01-04T17:04:59.698Z,99207.19
2023-01-04T17:07:32.503Z,99301.81
2023-01-04T17:10:00.950Z,99254.63
2023-01-04T17:15:46.147Z,99210.41
2023-01-04T17:18:04.857Z,99271.72
2023-01-04T17:20:32.207Z,99219.25
2023-01-04T17:22:59.003Z,99210.56
2023-01-04T17:25:27.907Z,99248.31
2023-01-04T17:27:55.436Z,99266.75
2023-01-04T17:30:22.512Z,99223.41
2023-01-04T17:32:49.978Z,99233.44
2023-01-04T17:35:16.977Z,99155.19
2023-01-04T17:37:43.706Z,99129.59
2023-01-04T17:40:11.382Z,99232.50
2023-01-04T17:42:39.759Z,99114.16
2023-01-04T17:45:06.978Z,99118.91
2023-01-04T17:47:35.605Z,99137.00
2023-01-04T17:50:04.037Z,99187.66
2023-01-04T17:52:31.752Z,99142.44
2023-01-04T17:54:59.274Z,99150.44
2023-01-04T17:57:29.323Z,99097.09
2023-01-04T17:59:56.938Z,99045.34
2023-01-04T18:02:26.558Z,99145.63
2023-01-04T18:04:53.914Z,99118.84
2023-01-04T18:07:25.639Z,99079.44
2023-01-04T18:09:55.319Z,99140.81
2023-01-04T18:12:24.818Z,99111.53
2023-01-04T18:14:52.940Z,99098.72
2023-01-04T18:17:20.935Z,99017.47
2023-01-04T18:19:49.720Z,98967.84
2023-01-04T18:22:18.042Z,99065.31
2023-01-04T18:24:46.357Z,99090.31
2023-01-04T18:27:25.150Z,99099.41
2023-01-04T18:29:56.121Z,99062.38
2023-01-04T18:32:25.120Z,99047.91
2023-01-04T18:34:55.057Z,98918.50
2023-01-04T18:37:23.992Z,99051.00
2023-01-04T18:39:52.085Z,98970.00
2023-01-04T18:42:21.738Z,98984.09
2023-01-04T18:44:49.868Z,98996.38
2023-01-04T18:47:21.967Z,99050.94
2023-01-04T18:49:54.332Z,99034.69
2023-01-04T18:52:23.199Z,99001.22
2023-01-04T18:54:51.531Z,99015.22
2023-01-04T18:57:20.249Z,99012.66
2023-01-04T18:59:50.443Z,98987.44
2023-01-04T19:02:20.541Z,99023.94
2023-01-04T19:04:49.132Z,99018.25
2023-01-04T19:07:17.890Z,98834.16
2023-01-04T19:09:48.070Z,98917.50
2023-01-04T19:12:16.281Z,98853.03
2023-01-04T19:14:43.151Z,98995.66
2023-01-04T19:17:13.611Z,98958.38
2023-01-04T19:19:46.746Z,98976.50
2023-01-04T19:22:16.283Z,98959.69
2023-01-04T19:24:45.541Z,98873.03
2023-01-04T19:27:12.873Z,98971.72
2023-01-04T19:29:40.997Z,98946.00
2023-01-04T19:32:07.837Z,98910.66
2023-01-04T19:34:34.676Z,98819.75
2023-01-04T19:37:01.853Z,98750.78
2023-01-04T19:39:30.229Z,98853.22
2023-01-04T19:41:58.209Z,98877.03
2023-01-04T19:44:28.966Z,98726.81
2023-01-04T19:46:55.743Z,98857.28
2023-01-04T19:49:24.835Z,98798.09
2023-01-04T19:51:53.431Z,98761.59
2023-01-04T19:54:25.458Z,98805.44
2023-01-04T19:56:53.749Z,98844.22
2023-01-04T19:59:21.229Z,98843.31
2023-01-04T20:01:52.285Z,98784.81
2023-01-04T20:04:22.088Z,98851.22
2023-01-04T20:06:50.793Z,98755.50
2023-01-04T20:09:25.015Z,98796.09
2023-01-04T20:11:56.799Z,98718.03
2023-01-04T20:14:24.134Z,98637.94
2023-01-04T20:16:52.216Z,98778.72
2023-01-04T20:19:20.033Z,98705.13
2023-01-04T20:21:46.985Z,98790.38
2023-01-04T20:24:15.378Z,98583.41
2023-01-04T20:26:42.202Z,98735.47
2023-01-04T20:29:09.504Z,98541.53
2023-01-04T20:31:40.859Z,98770.09
2023-01-04T20:34:10.660Z,98756.84
2023-01-04T20:36:39.530Z,98761.56
2023-01-04T20:39:06.546Z,98617.94
2023-01-04T20:41:33.652Z,98638.28
2023-01-04T20:44:02.293Z,98628.53
2023-01-04T20:46:32.835Z,98725.50
2023-01-04T20:49:01.031Z,98675.53
2023-01-04T20:51:30.447Z,98679.00
2023-01-04T20:54:01.587Z,98623.56
2023-01-04T20:56:30.336Z,98684.53
2023-01-04T20:58:57.228Z,98609.22
2023-01-04T21:01:25.342Z,98638.34
2023-01-04T21:03:52.454Z,98647.41
2023-01-04T21:06:19.635Z,98538.63
2023-01-04T21:08:47.162Z,98663.28
2023-01-04T21:11:14.698Z,98654.19
2023-01-04T21:13:41.874Z,98653.03
2023-01-04T21:16:09.076Z,98600.13
2023-01-04T21:18:37.352Z,98625.38
2023-01-04T21:21:06.340Z,98568.59
2023-01-04T21:23:33.196Z,98502.56
2023-01-04T21:26:05.280Z,98496.84
2023-01-04T21:28:32.089Z,98516.44
2023-01-04T21:30:58.882Z,98577.06
2023-01-04T21:33:26.157Z,98515.41
2023-01-04T21:35:52.898Z,98525.84
2023-01-04T21:38:19.797Z,98535.06
2023-01-04T21:40:46.696Z,98398.94
2023-01-04T21:43:17.983Z,98497.59
2023-01-04T21:45:44.744Z,98353.66
2023-01-04T21:48:11.655Z,98382.94
2023-01-04T21:50:38.598Z,98471.41
2023-01-04T21:53:05.397Z,98492.97
2023-01-04T21:55:34.815Z,98469.28
2023-01-04T21:58:02.485Z,98472.63
2023-01-04T22:00:29.235Z,98365.34
2023-01-04T22:02:56.085Z,98504.88
2023-01-04T22:05:22.997Z,98448.47
2023-01-04T22:07:49.795Z,98403.75
2023-01-04T22:10:16.737Z,98385.84
2023-01-04T22:12:44.878Z,98399.72
2023-01-04T22:15:11.844Z,98419.22
2023-01-04T22:17:38.733Z,98348.34
2023-01-04T22:20:05.966Z,98432.09
2023-01-04T22:22:32.707Z,98314.19
2023-01-04T22:24:59.529Z,98360.66
2023-01-04T22:27:26.285Z,98322.44
2023-01-04T22:29:53.046Z,98335.31
2023-01-04T22:32:19.927Z,98364.50
2023-01-04T22:34:46.705Z,98383.47
2023-01-04T22:37:13.518Z,98303.59
2023-01-04T22:39:40.753Z,98245.13
2023-01-04T22:42:07.431Z,98368.31
2023-01-04T22:44:34.164Z,98346.97
2023-01-04T22:47:01.185Z,98329.59
2023-01-04T22:49:28.082Z,98299.72
2023-01-04T22:51:55.849Z,98176.94
2023-01-04T22:54:23.279Z,98233.34
2023-01-04T22:56:50.510Z,98335.06
2023-01-04T22:59:17.316Z,98159.47
2023-01-04T23:01:44.348Z,98297.53
2023-01-04T23:04:15.592Z,98249.91
2023-01-04T23:06:42.870Z,98301.88
2023-01-04T23:09:13.444Z,98256.91
2023-01-04T23:11:41.087Z,98286.53
2023-01-04T23:14:12.174Z,98269.09
2023-01-04T23:16:39.096Z,98253.69
2023-01-04T23:19:06.927Z,98202.16
2023-01-04T23:21:34.682Z,98233.22
2023-01-04T23:24:01.880Z,98148.00
2023-01-04T23:26:29.636Z,98219.88
2023-01-04T23:28:57.001Z,98171.47
2023-01-04T23:31:25.811Z,98124.28
2023-01-04T23:33:54.435Z,98188.75
2023-01-04T23:36:27.280Z,98112.47
2023-01-04T23:38:57.091Z,98107.50
2023-01-04T23:41:43.239Z,98152.47
2023-01-04T23:44:14.022Z,98156.88
2023-01-04T23:46:41.074Z,98070.22
2023-01-04T23:49:07.830Z,97974.31
2023-01-04T23:51:34.644Z,98113.19
2023-01-04T23:54:01.533Z,98126.91
2023-01-04T23:56:28.401Z,98087.09
2023-01-04T23:58:55.186Z,98107.03
